Detall de PIREP

Printer-friendly versionPDF version

[2012/06/07 15:41:00]
Flight IATA:CT2300
Pilot Number:042
Company ICAO:CAT
Aircraft Type:A320/E
PAX:100
Departing Airport: LIEA
Destination Airport: LIBD
Alternate Airport:LIRN
Online: VATSIM
Route:KOLUS UM603 VEGAN UP748 TOPNO
Flight Level:F310
No Slew and time accel
No pause
Crash detect
Detect pilot in Cockpit between each 30 and 45 minutes
15:41 Zero fuel Weight: 143850 Lbs, Fuel Weight: 42156 Lbs
15:41 VATSIM:LIEA 071520Z 22007KT CAVOK 32/09 Q1010
15:41 VATSIM:LIBD 071520Z 09011KT CAVOK 27/13 Q1012
15:42 VOICE CATALONIAN
15:58 Parking Brakes off
16:04 Take-off
16:04 Take off Weight: 184893 Lbs
16:04 Wind: 220º @ 007 Knots Heading: 205º
16:04 POS N40º 37´ 18´´ E008º 17´ 04´´
16:04 Flaps:3 at 165 Knots
16:04 Gear Up: 165 Knots
16:04 Flaps:2 at 167 Knots
16:05 Flaps:1 at 199 Knots
16:05 Flaps:0 at 220 Knots
16:19 Wind:081º@042 Knots Heading: 084º Ground Speed: 415 Knots Altitude 25495 ft
16:23 TOC
16:23 Fuel Weight: 36080 Lb
16:34 Wind:234º@022 Knots Heading: 087º Ground Speed: 487 Knots Altitude 31013 ft
16:38 TOD
16:38 Fuel Weight: 34187 Lb
16:49 Wind:248º@012 Knots Heading: 082º Ground Speed: 362 Knots Altitude 19944 ft
17:03 Flaps:1 at 193 Knots
17:04 Wind:114º@005 Knots Heading: 069º Ground Speed: 200 Knots Altitude 3845 ft
17:05 Flaps:3 at 179 Knots
17:11 Flaps:4 at 170 Knots
17:11 Gear Down: 167 Knots
17:11 Flaps:5 at 157 Knots
17:14 TouchDown:Rate -499 ft/min Speed: 146 Knots
17:15 VATSIM:LIBD 071650Z 10011KT CAVOK 26/11 Q1012
17:15 Land
17:15 Wind:099º@011 Knots
17:15 Heading: 070º
17:15 Flight Duration: 01:11
17:15 Landing Weight: 174487 Lbs
17:15 POS N41º 08´ 22´´ E016º 45´ 52´´
17:18 Parking brakes on
17:18 Block to Block Duration: 01:20
17:18 Final Fuel: 30130 Lbls
17:18 Spent Fuel: 12026 Lbls
17:18 Flight Length: 415 NM
17:18 TOD Land Length: 181 NM

Exportar CSV

Powered by Drupal - Modified by Danger4k